Time;durP1;ratioP1;P1;durP2;ratioP2;P2;SDS_P1;SDS_P2;PMS_P1;PMS_P2;Temp;Humidity;BMP_temperature;BMP_pressure;BME280_temperature;BME280_humidity;BME280_pressure;Samples;Min_cycle;Max_cycle;Signal;HPM_P1;HPM_P2
2021/08/07 00:00:30;;;;;;;2.10;0.75;;;;;;;34.90;17.94;94040.59;5054503;28;20399;-79
2021/08/07 00:02:57;;;;;;;0.98;0.68;;;;;;;34.72;18.10;94040.53;5055593;28;20079;-78
2021/08/07 00:05:24;;;;;;;2.13;0.75;;;;;;;34.96;17.72;94040.75;5055302;28;20530;-79
2021/08/07 00:07:51;;;;;;;1.30;0.93;;;;;;;34.87;17.84;94030.63;5055523;28;20321;-78
2021/08/07 00:10:18;;;;;;;1.00;0.75;;;;;;;34.68;17.93;94029.81;5054292;28;20056;-78
2021/08/07 00:12:45;;;;;;;1.13;0.70;;;;;;;34.77;17.97;94037.22;5055326;28;20365;-78
2021/08/07 00:15:13;;;;;;;1.02;0.85;;;;;;;34.59;18.06;94037.94;5055383;28;20052;-79
2021/08/07 00:17:40;;;;;;;1.02;0.80;;;;;;;34.58;18.12;94036.41;5055365;28;20045;-80
2021/08/07 00:20:08;;;;;;;2.40;0.80;;;;;;;34.82;17.85;94045.53;5054198;28;20047;-78
2021/08/07 00:22:35;;;;;;;1.35;0.90;;;;;;;34.81;17.96;94044.00;5034812;28;20049;-79
2021/08/07 00:25:02;;;;;;;1.85;0.70;;;;;;;34.59;18.16;94043.34;5035398;28;20371;-77
2021/08/07 00:27:29;;;;;;;1.48;0.80;;;;;;;34.46;18.13;94050.88;5035481;28;20045;-77
2021/08/07 00:29:56;;;;;;;1.23;0.90;;;;;;;34.35;18.13;94045.84;5035312;28;20045;-79
2021/08/07 00:32:24;;;;;;;1.50;0.93;;;;;;;34.25;18.65;94053.16;5034164;28;20060;-79
2021/08/07 00:35:07;;;;;;;1.38;0.82;;;;;;;34.58;18.23;94052.69;5018426;28;20049;-78
2021/08/07 00:37:34;;;;;;;1.13;0.85;;;;;;;34.26;18.42;94051.97;5035242;28;20478;-79
2021/08/07 00:40:06;;;;;;;;;;;;;;;34.39;18.41;94056.56;5031217;28;20049;-78
2021/08/07 00:42:34;;;;;;;0.95;0.80;;;;;;;34.33;18.57;94048.97;5036531;28;20240;-79
2021/08/07 00:45:07;;;;;;;1.42;0.85;;;;;;;34.32;18.59;94052.88;5037423;28;20379;-79
2021/08/07 00:47:35;;;;;;;1.42;1.08;;;;;;;34.45;18.30;94057.50;5037066;28;20466;-77
2021/08/07 00:50:07;;;;;;;1.00;0.90;;;;;;;34.31;18.68;94053.34;5037079;28;20052;-78
2021/08/07 00:52:37;;;;;;;;;;;;;;;34.31;18.39;94056.78;5036898;28;20053;-78
2021/08/07 00:55:06;;;;;;;1.08;0.70;;;;;;;34.09;18.88;94053.38;5037334;28;19947;-80
2021/08/07 00:57:34;;;;;;;1.08;0.75;;;;;;;34.14;18.99;94052.81;5036482;28;20040;-78
2021/08/07 01:00:01;;;;;;;1.10;0.80;;;;;;;33.98;19.19;94039.47;5035977;28;20048;-78
2021/08/07 01:02:28;;;;;;;1.75;0.90;;;;;;;34.25;18.77;94047.75;5054375;28;20041;-79
2021/08/07 01:05:13;;;;;;;3.42;0.85;;;;;;;33.94;19.11;94050.47;5020547;28;20048;-78
2021/08/07 01:07:48;;;;;;;1.38;1.10;;;;;;;34.25;18.78;94036.88;5020821;28;20073;-77
2021/08/07 01:10:27;;;;;;;1.52;0.90;;;;;;;33.99;19.15;94038.28;5054183;28;20055;-77
2021/08/07 01:13:10;;;;;;;2.88;0.88;;;;;;;34.23;18.55;94036.59;5035847;28;20053;-77
2021/08/07 01:15:44;;;;;;;1.17;0.82;;;;;;;34.14;18.87;94041.97;5037062;28;20828;-79
2021/08/07 01:18:15;;;;;;;0.95;0.80;;;;;;;33.91;19.34;94045.16;5036223;28;20574;-77
2021/08/07 01:20:47;;;;;;;1.33;0.90;;;;;;;34.10;18.99;94046.03;5018592;28;20064;-77
2021/08/07 01:23:36;;;;;;;2.88;1.05;;;;;;;34.01;18.92;94041.28;5019957;28;20045;-77
2021/08/07 01:26:15;;;;;;;1.45;1.10;;;;;;;33.92;19.04;94035.84;5020973;28;20475;-77
2021/08/07 01:28:51;;;;;;;1.00;0.90;;;;;;;34.05;18.82;94039.19;5037568;28;20041;-77
2021/08/07 01:31:22;;;;;;;1.30;0.93;;;;;;;34.21;18.97;94046.38;5019151;28;20048;-75
2021/08/07 01:33:49;;;;;;;1.50;0.95;;;;;;;33.91;19.35;94053.31;5020606;28;20324;-78
2021/08/07 01:36:24;;;;;;;1.00;0.90;;;;;;;33.98;19.23;94047.59;5037646;28;20363;-77
2021/08/07 01:38:55;;;;;;;1.95;0.90;;;;;;;33.80;19.62;94036.63;5035642;28;20056;-78
2021/08/07 01:41:23;;;;;;;1.20;0.85;;;;;;;33.92;19.04;94042.00;5045770;28;20083;-78
2021/08/07 01:43:59;;;;;;;1.63;0.90;;;;;;;34.11;18.95;94037.44;5021444;28;20498;-78
2021/08/07 01:46:36;;;;;;;1.58;0.88;;;;;;;33.97;19.31;94041.44;5055299;28;20363;-81
2021/08/07 01:49:14;;;;;;;1.10;0.73;;;;;;;34.11;19.06;94037.44;5024274;28;20041;-79
2021/08/07 01:51:55;;;;;;;1.05;0.88;;;;;;;33.94;19.04;94038.84;5039300;28;20052;-78
2021/08/07 01:54:34;;;;;;;1.20;0.77;;;;;;;33.88;19.18;94049.53;5040840;28;20051;-77
2021/08/07 01:57:11;;;;;;;1.40;1.00;;;;;;;33.98;19.01;94047.59;5039869;28;20063;-78
2021/08/07 01:59:40;;;;;;;1.35;0.80;;;;;;;34.05;19.01;94050.06;5040515;28;20060;-78
2021/08/07 02:02:08;;;;;;;3.10;0.93;;;;;;;33.99;18.79;94038.28;5039858;28;20057;-79
2021/08/07 02:04:45;;;;;;;1.23;0.82;;;;;;;33.86;19.23;94035.66;5056723;28;20048;-79
2021/08/07 02:07:22;;;;;;;1.50;0.90;;;;;;;33.97;18.77;94037.97;5039785;28;20570;-75
2021/08/07 02:09:55;;;;;;;1.17;0.80;;;;;;;34.28;18.57;94052.25;5031158;28;20045;-75
2021/08/07 02:12:23;;;;;;;1.20;1.00;;;;;;;34.08;18.75;94043.72;5039764;28;20063;-78
2021/08/07 02:14:55;;;;;;;2.13;1.17;;;;;;;34.26;18.72;94057.38;5039204;28;20041;-78
2021/08/07 02:17:22;;;;;;;1.23;0.93;;;;;;;33.94;18.97;94047.00;5040234;28;20074;-76
2021/08/07 02:19:52;;;;;;;1.05;0.90;;;;;;;34.19;18.67;94060.38;5039839;28;20044;-78
2021/08/07 02:22:20;;;;;;;1.13;0.88;;;;;;;34.00;18.95;94056.06;5038929;28;20056;-77
2021/08/07 02:24:48;;;;;;;1.40;1.10;;;;;;;34.08;19.00;94057.28;5039784;28;20045;-77
2021/08/07 02:27:40;;;;;;;1.67;0.90;;;;;;;33.88;18.96;94056.91;5039746;28;20044;-78
2021/08/07 02:30:08;;;;;;;1.20;0.73;;;;;;;34.03;18.82;94068.72;5040068;28;20040;-77
2021/08/07 02:32:41;;;;;;;1.30;1.00;;;;;;;34.07;18.99;94063.91;5037792;28;20049;-78
2021/08/07 02:35:10;;;;;;;2.53;0.80;;;;;;;33.92;18.88;94073.78;5056090;28;20332;-78
2021/08/07 02:37:39;;;;;;;1.70;0.98;;;;;;;33.94;18.96;94071.41;5039401;28;20053;-78
2021/08/07 02:40:09;;;;;;;1.65;1.05;;;;;;;34.06;18.61;94072.50;5039191;28;20052;-78
2021/08/07 02:42:39;;;;;;;1.42;1.05;;;;;;;34.05;18.69;94079.88;5039246;28;20053;-77
2021/08/07 02:45:08;;;;;;;3.17;1.05;;;;;;;34.08;18.86;94070.09;5038104;28;20044;-78
2021/08/07 02:47:36;;;;;;;1.30;0.90;;;;;;;33.97;18.77;94067.78;5039469;28;20044;-78
2021/08/07 02:50:06;;;;;;;1.97;0.90;;;;;;;33.97;19.17;94071.25;5039011;28;20049;-78
2021/08/07 02:52:35;;;;;;;1.25;0.90;;;;;;;33.76;19.27;94071.25;5019265;28;20037;-78
2021/08/07 02:55:04;;;;;;;1.40;0.90;;;;;;;33.72;19.38;94074.84;5042086;28;20061;-77
2021/08/07 02:57:32;;;;;;;1.00;0.90;;;;;;;33.75;19.28;94069.72;5055521;28;20052;-77
2021/08/07 03:00:00;;;;;;;3.53;1.30;;;;;;;33.69;19.28;94066.84;5039344;28;20367;-77
2021/08/07 03:02:27;;;;;;;1.40;1.00;;;;;;;33.70;19.07;94060.97;5022224;28;20440;-78
2021/08/07 03:04:55;;;;;;;1.50;0.90;;;;;;;33.58;19.50;94071.91;5055706;28;20045;-77
2021/08/07 03:07:23;;;;;;;1.50;1.00;;;;;;;33.84;19.26;94067.13;5038075;28;20060;-78
2021/08/07 03:09:51;;;;;;;1.50;1.10;;;;;;;33.64;19.38;94065.47;5038564;28;20037;-79
2021/08/07 03:12:18;;;;;;;2.10;1.02;;;;;;;33.82;19.24;94074.88;5038986;28;20337;-79
2021/08/07 03:14:46;;;;;;;2.85;1.13;;;;;;;33.66;19.47;94079.31;5055349;28;20045;-78
2021/08/07 03:17:14;;;;;;;1.40;1.25;;;;;;;33.59;19.40;94074.16;5038810;28;20372;-77
2021/08/07 03:19:44;;;;;;;1.50;1.00;;;;;;;33.70;19.50;94077.25;5038719;28;20060;-77
2021/08/07 03:22:12;;;;;;;1.38;0.98;;;;;;;33.65;19.60;94072.38;5038993;28;20056;-78
2021/08/07 03:24:42;;;;;;;1.60;1.13;;;;;;;33.83;18.91;94069.09;5037686;28;20060;-78
2021/08/07 03:27:09;;;;;;;1.40;1.10;;;;;;;33.41;19.35;94079.44;5055262;28;20048;-79
2021/08/07 03:29:41;;;;;;;1.10;0.95;;;;;;;33.56;19.56;94091.28;5038854;28;20044;-77
2021/08/07 03:32:14;;;;;;;1.30;1.10;;;;;;;33.52;19.56;94085.22;5038396;28;20060;-78
2021/08/07 03:34:43;;;;;;;2.30;1.15;;;;;;;33.39;19.70;94087.25;5038410;28;20372;-76
2021/08/07 03:37:11;;;;;;;3.35;1.10;;;;;;;34.38;19.11;94087.63;5038327;28;20068;-69
2021/08/07 03:39:44;;;;;;;2.13;1.10;;;;;;;34.73;18.67;94096.34;5052568;28;20056;-68
2021/08/07 03:42:11;;;;;;;1.50;1.05;;;;;;;34.90;18.86;94111.94;5075486;28;20048;-69
2021/08/07 03:44:39;;;;;;;2.08;1.23;;;;;;;34.84;18.90;94107.53;5050526;28;20368;-69
2021/08/07 03:47:06;;;;;;;3.63;1.40;;;;;;;34.52;18.82;94114.19;5035651;28;20376;-69
2021/08/07 03:49:33;;;;;;;3.38;1.10;;;;;;;34.98;18.48;94112.41;5017889;28;20037;-68
2021/08/07 03:52:00;;;;;;;3.72;1.40;;;;;;;34.45;18.63;94109.03;5039637;22;20063;-54
2021/08/07 03:54:28;;;;;;;3.35;1.05;;;;;;;34.53;18.69;94121.13;5082288;28;20318;-58
2021/08/07 03:57:01;;;;;;;2.15;1.30;;;;;;;33.55;19.83;94111.44;5091635;28;20044;-56
2021/08/07 03:59:29;;;;;;;2.28;1.20;;;;;;;33.48;20.06;94121.78;5088186;28;20081;-55
2021/08/07 04:01:57;;;;;;;2.78;1.25;;;;;;;33.41;20.21;94120.06;5093795;28;20358;-64
2021/08/07 04:04:26;;;;;;;1.48;1.10;;;;;;;33.53;19.87;94119.25;5094631;28;20331;-68
2021/08/07 04:06:55;;;;;;;1.83;1.10;;;;;;;33.42;20.47;94119.63;5094440;28;20056;-54
2021/08/07 04:09:33;;;;;;;2.17;1.17;;;;;;;33.40;20.28;94121.25;5093904;28;20040;-56
2021/08/07 04:12:00;;;;;;;1.75;1.30;;;;;;;33.40;20.30;94118.56;5090364;28;20067;-49
2021/08/07 04:14:28;;;;;;;2.17;1.20;;;;;;;33.33;20.44;94126.94;5091096;28;20048;-68
2021/08/07 04:16:55;;;;;;;1.92;1.10;;;;;;;33.37;19.97;94132.97;5094770;28;20066;-68
2021/08/07 04:19:26;;;;;;;1.35;1.08;;;;;;;33.38;19.90;94129.81;5095499;28;20054;-69
2021/08/07 04:21:58;;;;;;;2.08;1.23;;;;;;;33.56;19.82;94131.91;5079973;28;20068;-68
2021/08/07 04:24:29;;;;;;;1.30;1.20;;;;;;;33.37;20.18;94138.41;5075090;28;20040;-68
2021/08/07 04:26:56;;;;;;;2.08;1.23;;;;;;;33.47;20.46;94131.84;5075153;28;20051;-67
2021/08/07 04:29:23;;;;;;;4.35;1.40;;;;;;;33.56;20.53;94134.63;5075220;28;20050;-67
2021/08/07 04:31:55;;;;;;;2.28;1.10;;;;;;;33.80;20.12;94131.50;5073521;28;20048;-66
2021/08/07 04:34:23;;;;;;;1.80;1.20;;;;;;;33.53;20.07;94130.09;5073953;28;20056;-60
2021/08/07 04:36:50;;;;;;;1.75;1.10;;;;;;;33.81;20.16;94133.00;5074996;28;20044;-66
2021/08/07 04:39:19;;;;;;;2.35;1.00;;;;;;;33.86;19.69;94140.63;5073398;28;20052;-65
2021/08/07 04:41:47;;;;;;;1.77;1.30;;;;;;;33.71;20.71;94132.94;5092444;28;20051;-69
2021/08/07 04:44:14;;;;;;;2.08;1.10;;;;;;;33.86;20.53;94146.06;5095064;28;20055;-65
2021/08/07 04:46:41;;;;;;;2.10;1.10;;;;;;;34.10;20.10;94151.78;5092622;28;20059;-66
2021/08/07 04:49:10;;;;;;;1.50;0.93;;;;;;;34.13;20.18;94153.63;5094028;28;20036;-68
2021/08/07 04:51:37;;;;;;;1.55;1.08;;;;;;;34.10;20.56;94160.69;5092962;28;20048;-65
2021/08/07 04:54:06;;;;;;;1.60;1.35;;;;;;;34.32;20.15;94158.69;5073925;28;20070;-64
2021/08/07 04:56:33;;;;;;;2.42;1.00;;;;;;;34.46;20.09;94164.81;5073635;28;20048;-67
2021/08/07 04:59:00;;;;;;;1.48;1.15;;;;;;;34.36;19.98;94165.97;5074830;28;20044;-66
2021/08/07 05:01:31;;;;;;;1.25;1.00;;;;;;;34.36;19.89;94165.97;5073744;28;20056;-68
2021/08/07 05:03:59;;;;;;;1.70;1.20;;;;;;;34.71;20.03;94172.03;5092018;28;20115;-69
2021/08/07 05:06:26;;;;;;;2.08;1.25;;;;;;;34.54;20.13;94174.19;5092798;28;20473;-68
2021/08/07 05:08:53;;;;;;;1.60;1.13;;;;;;;34.79;19.67;94174.00;5093729;28;20041;-68
2021/08/07 05:11:21;;;;;;;2.85;1.08;;;;;;;34.92;19.73;94180.13;5090479;28;20040;-69
2021/08/07 05:13:48;;;;;;;1.75;1.15;;;;;;;35.01;19.33;94176.69;5074374;28;20044;-65
2021/08/07 05:16:18;;;;;;;1.50;1.15;;;;;;;35.12;19.39;94187.13;5074747;28;20056;-65
2021/08/07 05:18:46;;;;;;;1.95;1.27;;;;;;;35.36;19.22;94182.69;5093536;28;20052;-66
2021/08/07 05:21:13;;;;;;;1.52;1.30;;;;;;;35.22;19.00;94185.97;5095172;28;20052;-66
2021/08/07 05:23:42;;;;;;;1.75;1.23;;;;;;;35.45;18.65;94176.53;5080877;28;20055;-69
2021/08/07 05:26:11;;;;;;;1.77;1.40;;;;;;;35.44;18.83;94175.78;5076062;28;20370;-69
2021/08/07 05:28:38;;;;;;;2.13;1.10;;;;;;;35.45;18.94;94180.00;5077326;28;20040;-69
2021/08/07 05:31:07;;;;;;;1.70;1.15;;;;;;;35.64;18.67;94182.72;5077412;28;20457;-67
2021/08/07 05:33:36;;;;;;;2.15;1.20;;;;;;;35.54;18.71;94190.13;5076430;28;20044;-68
2021/08/07 05:36:04;;;;;;;1.90;1.30;;;;;;;35.79;18.69;94195.28;5059598;28;20446;-68
2021/08/07 05:38:31;;;;;;;1.50;1.08;;;;;;;35.88;18.09;94202.69;5083047;28;20040;-66
2021/08/07 05:40:58;;;;;;;2.65;1.00;;;;;;;36.17;18.50;94207.66;5077357;28;20052;-67
2021/08/07 05:43:26;;;;;;;2.03;1.10;;;;;;;36.04;18.59;94213.28;5093831;28;20052;-68
2021/08/07 05:45:54;;;;;;;3.40;1.30;;;;;;;35.99;18.49;94208.47;5093880;28;20063;-68
2021/08/07 05:48:22;;;;;;;1.70;1.10;;;;;;;36.11;18.30;94215.69;5079043;28;20048;-67
2021/08/07 05:50:50;;;;;;;1.30;0.90;;;;;;;36.41;17.95;94216.75;5077336;28;20059;-67
2021/08/07 05:53:17;;;;;;;2.47;1.35;;;;;;;36.50;18.05;94229.59;5076016;28;20048;-67
2021/08/07 05:55:46;;;;;;;2.08;1.02;;;;;;;36.64;17.81;94223.50;5076376;28;20387;-67
2021/08/07 05:58:13;;;;;;;1.30;1.10;;;;;;;36.68;17.95;94229.53;5074772;28;20051;-67
2021/08/07 06:00:44;;;;;;;1.10;0.95;;;;;;;36.82;17.69;94216.53;5076471;28;20044;-66
2021/08/07 06:03:11;;;;;;;1.80;1.02;;;;;;;36.74;18.36;94230.44;5078319;28;20056;-65
2021/08/07 06:05:44;;;;;;;1.77;1.10;;;;;;;37.06;17.31;94233.69;5080111;28;20048;-69
2021/08/07 06:08:11;;;;;;;1.67;1.20;;;;;;;36.80;17.52;94229.84;5081985;28;20057;-68
2021/08/07 06:10:40;;;;;;;1.30;1.10;;;;;;;37.13;17.26;94224.41;5075766;28;20040;-67
2021/08/07 06:13:08;;;;;;;1.67;1.10;;;;;;;37.14;17.50;94226.69;5076690;28;20083;-67
2021/08/07 06:15:36;;;;;;;1.85;1.25;;;;;;;37.42;17.56;94219.16;5076824;28;20055;-64
2021/08/07 06:18:03;;;;;;;2.85;1.10;;;;;;;37.27;17.63;94224.53;5077785;28;20048;-67
2021/08/07 06:20:33;;;;;;;1.70;0.85;;;;;;;37.53;17.03;94235.00;5060554;28;20071;-65
2021/08/07 06:23:00;;;;;;;1.40;0.90;;;;;;;37.46;17.67;94229.88;5096285;28;20059;-67
2021/08/07 06:25:27;;;;;;;1.63;1.00;;;;;;;37.53;17.26;94235.00;5096814;28;20047;-67
2021/08/07 06:27:56;;;;;;;1.70;1.08;;;;;;;37.65;16.70;94234.00;5092918;28;20048;-66
2021/08/07 06:30:26;;;;;;;4.20;1.17;;;;;;;37.65;17.04;94231.28;5059392;28;20630;-63
2021/08/07 06:32:55;;;;;;;0.90;0.77;;;;;;;37.69;17.28;94226.41;5076348;28;20056;-66
2021/08/07 06:35:22;;;;;;;1.30;0.90;;;;;;;37.84;16.84;94231.94;5076317;28;20044;-65
2021/08/07 06:37:50;;;;;;;1.27;0.90;;;;;;;37.57;16.71;94235.56;5086590;28;20052;-66
2021/08/07 06:40:18;;;;;;;2.42;0.90;;;;;;;37.67;16.58;94234.28;5095800;28;20047;-67
2021/08/07 06:42:45;;;;;;;1.77;1.05;;;;;;;37.90;16.75;94246.44;5097124;28;20048;-63
2021/08/07 06:45:32;;;;;;;1.20;1.00;;;;;;;37.49;16.77;94250.78;5096741;28;20055;-66
2021/08/07 06:48:04;;;;;;;5.95;1.27;;;;;;;37.58;16.46;94248.00;5097070;28;20054;-66
2021/08/07 06:50:33;;;;;;;3.00;1.10;;;;;;;37.60;17.31;94246.31;5096113;28;20070;-67
2021/08/07 06:53:00;;;;;;;1.85;0.93;;;;;;;38.24;16.52;94247.88;5096121;28;20358;-67
2021/08/07 06:55:27;;;;;;;2.55;1.00;;;;;;;38.08;16.10;94245.56;5078260;28;20056;-67
2021/08/07 06:57:55;;;;;;;2.97;1.00;;;;;;;38.09;16.37;94238.88;5084221;28;20055;-67
2021/08/07 07:00:23;;;;;;;1.65;0.80;;;;;;;38.27;16.11;94251.66;5074833;28;20044;-67
2021/08/07 07:02:50;;;;;;;1.63;0.90;;;;;;;38.18;16.21;94238.81;5075968;28;20366;-67
2021/08/07 07:05:18;;;;;;;3.30;1.00;;;;;;;38.32;15.79;94243.56;5075054;28;20048;-68
2021/08/07 07:07:46;;;;;;;1.75;0.85;;;;;;;38.16;15.90;94246.69;5074507;28;20048;-65
2021/08/07 07:10:14;;;;;;;2.55;1.00;;;;;;;38.43;15.83;94238.28;5089799;28;20434;-67
2021/08/07 07:12:42;;;;;;;1.42;1.02;;;;;;;38.67;15.93;94248.41;5091764;28;20056;-65
2021/08/07 07:15:11;;;;;;;2.47;0.70;;;;;;;38.77;15.68;94241.63;5075815;28;20060;-67
2021/08/07 07:17:39;;;;;;;2.53;0.93;;;;;;;39.07;15.68;94239.66;5074456;28;20041;-66
2021/08/07 07:20:07;;;;;;;3.28;1.10;;;;;;;39.00;15.65;94248.94;5082248;28;20070;-68
2021/08/07 07:22:35;;;;;;;2.08;0.77;;;;;;;39.09;15.46;94235.22;5075496;28;20056;-68
2021/08/07 07:25:05;;;;;;;1.45;1.00;;;;;;;39.10;15.04;94246.91;5076567;28;20052;-65
2021/08/07 07:27:32;;;;;;;1.00;0.90;;;;;;;39.13;14.78;94243.22;5076172;28;20051;-69
2021/08/07 07:30:00;;;;;;;2.95;0.80;;;;;;;39.17;14.77;94241.03;5085971;28;20044;-68
2021/08/07 07:32:27;;;;;;;1.52;0.80;;;;;;;39.50;14.45;94238.03;5094723;28;20059;-65
2021/08/07 07:34:54;;;;;;;2.05;0.70;;;;;;;39.46;14.47;94248.41;5095450;28;20063;-65
2021/08/07 07:37:23;;;;;;;0.90;0.80;;;;;;;39.49;14.38;94255.66;5093601;28;20040;-68
2021/08/07 07:39:50;;;;;;;3.83;0.95;;;;;;;39.81;13.87;94244.91;5093658;28;20064;-67
2021/08/07 07:42:17;;;;;;;0.80;0.68;;;;;;;39.54;13.76;94241.34;5079847;28;20051;-67
2021/08/07 07:44:45;;;;;;;1.50;0.77;;;;;;;39.54;13.76;94243.31;5074448;28;20048;-68
2021/08/07 07:47:12;;;;;;;1.10;0.75;;;;;;;39.24;14.13;94248.09;5074024;28;20355;-68
2021/08/07 07:49:40;;;;;;;4.32;0.90;;;;;;;39.57;13.86;94242.38;5074717;28;20358;-68
2021/08/07 07:52:11;;;;;;;;;;;;;;;39.44;13.95;94250.88;5072784;28;20056;-68
2021/08/07 07:54:41;;;;;;;3.35;0.73;;;;;;;40.22;13.35;94254.63;5074775;28;19919;-68
2021/08/07 07:57:08;;;;;;;1.50;0.85;;;;;;;40.58;13.69;94258.00;5073497;28;20055;-68
2021/08/07 07:59:36;;;;;;;3.17;1.15;;;;;;;40.42;14.01;94259.34;5074523;28;20059;-68
2021/08/07 08:02:04;;;;;;;1.65;1.00;;;;;;;40.73;13.78;94261.41;5086759;28;20070;-68
2021/08/07 08:04:32;;;;;;;2.83;1.20;;;;;;;40.90;13.59;94254.09;5094859;28;20044;-68
2021/08/07 08:07:01;;;;;;;4.03;1.35;;;;;;;40.52;13.97;94259.94;5089757;28;20055;-66
2021/08/07 08:09:29;;;;;;;2.45;1.15;;;;;;;39.97;13.76;94252.59;5075751;28;20370;-68
2021/08/07 08:11:58;;;;;;;1.75;0.85;;;;;;;40.00;13.97;94265.31;5085303;28;20385;-57
2021/08/07 08:15:05;;;;;;;3.65;1.30;;;;;;;40.85;13.78;94263.00;5039872;28;20048;-68
2021/08/07 08:17:32;;;;;;;5.18;1.55;;;;;;;41.11;13.41;94262.22;5032716;28;20403;-68
2021/08/07 08:20:00;;;;;;;2.33;1.20;;;;;;;40.59;13.14;94265.72;5071956;28;20048;-69
2021/08/07 08:22:27;;;;;;;1.52;0.90;;;;;;;40.41;12.97;94266.06;5072634;28;20063;-68
2021/08/07 08:24:54;;;;;;;2.45;0.93;;;;;;;40.04;13.81;94263.13;5074240;28;20044;-65
2021/08/07 08:27:22;;;;;;;2.83;1.00;;;;;;;39.89;13.79;94262.44;5074137;28;20056;-68
2021/08/07 08:29:51;;;;;;;1.27;0.93;;;;;;;40.12;13.83;94258.75;5074399;28;20431;-66
2021/08/07 08:32:18;;;;;;;1.77;0.70;;;;;;;40.21;13.59;94258.59;5056827;28;20477;-68
2021/08/07 08:34:46;;;;;;;1.63;0.80;;;;;;;40.48;13.45;94246.47;5074079;28;20040;-68
2021/08/07 08:37:13;;;;;;;2.92;1.00;;;;;;;41.19;13.51;94263.28;5072694;28;20055;-68
2021/08/07 08:39:40;;;;;;;1.92;0.95;;;;;;;40.71;13.15;94266.59;5073735;28;20044;-69
2021/08/07 08:42:07;;;;;;;1.85;0.90;;;;;;;41.55;12.80;94278.25;5073599;28;20056;-66
2021/08/07 08:44:36;;;;;;;1.85;1.10;;;;;;;41.09;12.93;94270.19;5073950;28;20045;-68
2021/08/07 08:47:04;;;;;;;1.33;1.00;;;;;;;41.13;12.92;94270.72;5056875;28;20056;-68
2021/08/07 08:49:33;;;;;;;1.50;0.88;;;;;;;41.48;12.94;94279.47;5073685;28;20052;-68
2021/08/07 08:52:02;;;;;;;3.17;1.10;;;;;;;41.39;13.13;94276.19;5087189;28;20446;-56
2021/08/07 08:54:29;;;;;;;3.45;1.30;;;;;;;41.72;13.04;94276.41;5093613;28;20055;-63
2021/08/07 08:56:56;;;;;;;2.55;1.20;;;;;;;41.24;13.04;94276.31;5093026;28;20351;-68
2021/08/07 08:59:25;;;;;;;1.90;1.35;;;;;;;41.12;13.08;94274.69;5094085;28;20056;-68
2021/08/07 09:01:54;;;;;;;2.50;1.48;;;;;;;40.93;12.91;94275.06;5093940;28;20043;-65
2021/08/07 09:04:26;;;;;;;2.60;2.05;;;;;;;41.41;12.87;94274.44;5092886;28;20052;-68
2021/08/07 09:06:54;;;;;;;3.38;2.20;;;;;;;41.39;12.68;94276.94;5092995;28;20370;-69
2021/08/07 09:09:35;;;;;;;3.22;2.22;;;;;;;41.28;12.43;94271.34;5093992;28;20378;-68
2021/08/07 09:12:04;;;;;;;3.80;2.10;;;;;;;41.47;12.50;94277.22;5093586;28;20447;-68
2021/08/07 09:14:39;;;;;;;2.05;1.50;;;;;;;40.71;12.56;94274.81;5092685;28;20052;-67
2021/08/07 09:17:11;;;;;;;1.35;1.02;;;;;;;40.60;12.52;94270.00;5089056;28;20048;-68
2021/08/07 09:19:41;;;;;;;1.50;1.08;;;;;;;40.58;12.81;94268.97;5073024;28;20044;-68
2021/08/07 09:22:12;;;;;;;;;;;;;;;40.95;13.15;94278.06;5089104;28;20458;-68
2021/08/07 09:24:59;;;;;;;1.20;1.00;;;;;;;40.12;13.02;94286.13;5092274;28;19919;-58
2021/08/07 09:27:33;;;;;;;2.13;1.10;;;;;;;40.41;13.15;94281.75;5092378;28;20040;-72
2021/08/07 09:30:03;;;;;;;1.40;1.10;;;;;;;40.55;13.41;94278.16;5093333;28;20043;-47
2021/08/07 09:32:49;;;;;;;1.85;0.80;;;;;;;40.40;13.37;94277.50;5093193;28;20048;-61
2021/08/07 09:35:31;;;;;;;1.55;1.17;;;;;;;40.73;13.62;94277.84;5093408;28;20043;-52
2021/08/07 09:38:18;;;;;;;2.50;1.10;;;;;;;40.46;13.94;94276.31;5093114;28;20460;-51
2021/08/07 09:41:06;;;;;;;1.40;1.00;;;;;;;40.78;13.21;94274.38;5091289;28;20057;-61
2021/08/07 09:43:43;;;;;;;1.92;1.05;;;;;;;41.17;13.36;94276.75;5076318;28;20394;-48
2021/08/07 09:46:26;;;;;;;3.10;1.10;;;;;;;41.22;12.70;94278.75;5072209;28;20055;-74
2021/08/07 09:49:02;;;;;;;1.70;1.15;;;;;;;40.92;12.84;94283.75;5072608;28;20044;-58
2021/08/07 09:51:36;;;;;;;4.22;1.20;;;;;;;41.54;13.42;94284.97;5082530;28;20048;-64
2021/08/07 09:54:12;;;;;;;1.00;0.82;;;;;;;41.71;12.47;94285.13;5087190;28;20051;-54
2021/08/07 09:56:47;;;;;;;1.55;0.93;;;;;;;42.06;12.88;94288.31;5092970;28;20051;-62
2021/08/07 09:59:16;;;;;;;2.75;1.33;;;;;;;42.09;13.11;94284.56;5073652;28;20055;-60
2021/08/07 10:01:45;;;;;;;3.72;1.02;;;;;;;42.05;12.61;94289.53;5072561;28;20048;-58
2021/08/07 10:04:14;;;;;;;1.70;0.95;;;;;;;41.37;13.02;94284.13;5072222;28;20083;-55
2021/08/07 10:06:45;;;;;;;1.48;0.95;;;;;;;41.35;12.57;94287.34;5077195;28;20450;-69
2021/08/07 10:09:14;;;;;;;1.38;1.10;;;;;;;41.53;12.73;94281.50;5079682;28;20078;-55
2021/08/07 10:12:00;;;;;;;1.55;0.90;;;;;;;41.30;12.60;94279.84;5079526;28;20059;-69
2021/08/07 10:14:27;;;;;;;1.23;1.02;;;;;;;41.03;12.58;94272.88;5088774;28;20052;-54
2021/08/07 10:16:55;;;;;;;1.13;0.90;;;;;;;41.70;12.32;94280.88;5096872;28;20044;-73
2021/08/07 10:19:23;;;;;;;1.70;0.90;;;;;;;41.38;13.02;94280.91;5093643;28;20366;-51
2021/08/07 10:21:50;;;;;;;1.20;0.88;;;;;;;41.10;13.16;94263.47;5082697;28;20091;-57
2021/08/07 10:24:19;;;;;;;1.45;0.90;;;;;;;41.29;12.71;94270.13;5075995;28;20075;-54
2021/08/07 10:26:47;;;;;;;1.80;0.88;;;;;;;41.10;12.80;94277.16;5075681;28;20056;-52
2021/08/07 10:29:18;;;;;;;0.90;0.80;;;;;;;41.20;12.43;94270.28;5059543;28;20051;-60
2021/08/07 10:31:45;;;;;;;1.80;1.00;;;;;;;41.45;12.58;94261.25;5076439;28;20455;-55
2021/08/07 10:34:15;;;;;;;1.45;0.85;;;;;;;41.73;12.51;94250.47;5075503;28;20052;-54
2021/08/07 10:36:43;;;;;;;2.08;0.98;;;;;;;41.01;12.83;94256.19;5058734;28;20063;-56
2021/08/07 10:39:10;;;;;;;1.10;0.82;;;;;;;41.34;12.78;94252.94;5075953;28;20059;-55
2021/08/07 10:41:38;;;;;;;2.28;0.90;;;;;;;41.14;12.60;94244.81;5059410;28;20051;-61
2021/08/07 10:44:06;;;;;;;2.00;0.90;;;;;;;41.79;13.54;94242.25;5075759;28;20458;-50
2021/08/07 10:46:34;;;;;;;1.42;1.00;;;;;;;41.79;13.30;94242.25;5059768;28;20431;-61
2021/08/07 10:49:02;;;;;;;1.50;1.00;;;;;;;41.95;12.75;94233.34;5092865;28;20469;-54
2021/08/07 10:51:35;;;;;;;2.53;1.10;;;;;;;42.15;13.14;94240.66;5095603;28;20060;-61
2021/08/07 10:54:26;;;;;;;1.75;1.02;;;;;;;42.25;12.97;94232.97;5082144;28;20056;-62
2021/08/07 10:56:54;;;;;;;1.63;0.90;;;;;;;42.17;12.30;94227.22;5076855;28;20051;-69
2021/08/07 10:59:26;;;;;;;2.67;0.90;;;;;;;41.51;12.65;94226.38;5076443;28;20052;-63
2021/08/07 11:01:55;;;;;;;1.40;1.00;;;;;;;41.27;12.20;94225.97;5076958;28;20060;-68
2021/08/07 11:04:32;;;;;;;2.07;1.00;;;;;;;41.62;12.24;94219.44;5076173;28;20067;-67
2021/08/07 11:07:04;;;;;;;1.35;0.82;;;;;;;41.16;12.58;94220.41;5076650;28;20048;-60
2021/08/07 11:09:36;;;;;;;1.38;0.90;;;;;;;41.41;12.27;94216.84;5076227;28;20044;-57
2021/08/07 11:12:12;;;;;;;1.63;0.80;;;;;;;41.32;12.81;94206.06;5076739;28;20048;-60
2021/08/07 11:14:51;;;;;;;2.38;0.80;;;;;;;41.31;12.02;94210.03;5075594;28;20048;-61
2021/08/07 11:17:18;;;;;;;6.47;1.50;;;;;;;41.35;13.05;94212.56;5075666;28;20049;-59
2021/08/07 11:19:54;;;;;;;5.18;1.00;;;;;;;41.66;13.25;94211.78;5075063;28;20049;-71
2021/08/07 11:22:41;;;;;;;2.10;1.20;;;;;;;41.91;12.77;94210.88;5089872;28;20052;-56
2021/08/07 11:25:11;;;;;;;1.60;0.90;;;;;;;41.87;12.90;94210.34;5078129;28;20056;-65
2021/08/07 11:30:26;;;;;;;1.45;1.13;;;;;;;41.76;13.25;94215.78;5075262;28;20055;-70
2021/08/07 11:32:56;;;;;;;1.17;0.95;;;;;;;41.37;12.81;94208.09;5075211;28;20049;-54
2021/08/07 11:35:33;;;;;;;3.45;1.13;;;;;;;41.85;13.55;94201.84;5075706;28;20056;-51
2021/08/07 11:38:13;;;;;;;2.13;0.85;;;;;;;41.81;13.03;94206.84;5080704;28;20044;-51
2021/08/07 11:40:44;;;;;;;1.15;0.90;;;;;;;41.73;13.02;94203.06;5096017;28;20056;-73
2021/08/07 11:43:28;;;;;;;2.45;0.88;;;;;;;41.78;12.93;94203.09;5096247;28;20051;-49
2021/08/07 11:45:55;;;;;;;1.67;1.00;;;;;;;41.99;13.10;94200.16;5096217;28;20505;-58
2021/08/07 11:48:23;;;;;;;1.05;0.85;;;;;;;41.50;12.39;94199.44;5095392;28;20052;-58
2021/08/07 11:50:50;;;;;;;2.25;0.85;;;;;;;41.83;11.99;94196.09;5094533;28;20074;-54